sensor_id;sensor_type;location;lat;lon;timestamp;P1;durP1;ratioP1;P2;durP2;ratioP2
7334;SDS011;3708;42.632;23.378;2022-10-16T00:01:29;11.43;;;7.20;;
7334;SDS011;3708;42.632;23.378;2022-10-16T00:03:58;9.93;;;7.40;;
7334;SDS011;3708;42.632;23.378;2022-10-16T00:06:26;11.93;;;8.20;;
7334;SDS011;3708;42.632;23.378;2022-10-16T00:08:54;13.10;;;8.47;;
7334;SDS011;3708;42.632;23.378;2022-10-16T00:11:21;13.00;;;8.43;;
7334;SDS011;3708;42.632;23.378;2022-10-16T00:13:50;12.13;;;8.33;;
7334;SDS011;3708;42.632;23.378;2022-10-16T00:16:20;12.30;;;8.70;;
7334;SDS011;3708;42.632;23.378;2022-10-16T00:18:47;11.50;;;7.97;;
7334;SDS011;3708;42.632;23.378;2022-10-16T00:21:16;10.77;;;8.07;;
7334;SDS011;3708;42.632;23.378;2022-10-16T00:23:44;11.37;;;8.13;;
7334;SDS011;3708;42.632;23.378;2022-10-16T00:26:12;12.33;;;8.30;;
7334;SDS011;3708;42.632;23.378;2022-10-16T00:28:42;11.07;;;7.93;;
7334;SDS011;3708;42.632;23.378;2022-10-16T00:31:11;13.27;;;9.00;;
7334;SDS011;3708;42.632;23.378;2022-10-16T00:33:39;12.07;;;8.50;;
7334;SDS011;3708;42.632;23.378;2022-10-16T00:36:07;12.57;;;8.33;;
7334;SDS011;3708;42.632;23.378;2022-10-16T00:38:37;13.27;;;8.27;;
7334;SDS011;3708;42.632;23.378;2022-10-16T00:41:04;11.70;;;8.63;;
7334;SDS011;3708;42.632;23.378;2022-10-16T00:43:36;10.87;;;7.73;;
7334;SDS011;3708;42.632;23.378;2022-10-16T00:46:05;7.27;;;4.67;;
7334;SDS011;3708;42.632;23.378;2022-10-16T00:48:39;9.23;;;5.43;;
7334;SDS011;3708;42.632;23.378;2022-10-16T00:51:07;7.40;;;5.70;;
7334;SDS011;3708;42.632;23.378;2022-10-16T00:53:34;9.60;;;6.57;;
7334;SDS011;3708;42.632;23.378;2022-10-16T00:56:03;9.33;;;7.73;;
7334;SDS011;3708;42.632;23.378;2022-10-16T00:58:31;11.80;;;7.33;;
7334;SDS011;3708;42.632;23.378;2022-10-16T01:00:58;11.27;;;7.47;;
7334;SDS011;3708;42.632;23.378;2022-10-16T01:03:26;9.50;;;7.13;;
7334;SDS011;3708;42.632;23.378;2022-10-16T01:05:59;9.27;;;7.00;;
7334;SDS011;3708;42.632;23.378;2022-10-16T01:08:44;10.33;;;7.57;;
7334;SDS011;3708;42.632;23.378;2022-10-16T01:11:22;12.13;;;7.57;;
7334;SDS011;3708;42.632;23.378;2022-10-16T01:13:58;9.23;;;7.43;;
7334;SDS011;3708;42.632;23.378;2022-10-16T01:16:31;8.10;;;6.60;;
7334;SDS011;3708;42.632;23.378;2022-10-16T01:19:05;8.10;;;6.00;;
7334;SDS011;3708;42.632;23.378;2022-10-16T01:21:39;9.90;;;5.83;;
7334;SDS011;3708;42.632;23.378;2022-10-16T01:24:11;7.27;;;5.37;;
7334;SDS011;3708;42.632;23.378;2022-10-16T01:26:50;5.87;;;4.87;;
7334;SDS011;3708;42.632;23.378;2022-10-16T01:29:32;6.93;;;5.47;;
7334;SDS011;3708;42.632;23.378;2022-10-16T01:32:05;9.50;;;5.30;;
7334;SDS011;3708;42.632;23.378;2022-10-16T01:34:41;6.93;;;5.23;;
7334;SDS011;3708;42.632;23.378;2022-10-16T01:37:12;6.87;;;5.17;;
7334;SDS011;3708;42.632;23.378;2022-10-16T01:39:45;6.07;;;4.23;;
7334;SDS011;3708;42.632;23.378;2022-10-16T01:42:15;5.30;;;4.27;;
7334;SDS011;3708;42.632;23.378;2022-10-16T01:44:46;7.43;;;4.37;;
7334;SDS011;3708;42.632;23.378;2022-10-16T01:47:14;7.20;;;4.97;;
7334;SDS011;3708;42.632;23.378;2022-10-16T01:49:43;7.63;;;4.50;;
7334;SDS011;3708;42.632;23.378;2022-10-16T01:52:13;8.53;;;4.90;;
7334;SDS011;3708;42.632;23.378;2022-10-16T01:54:44;4.83;;;4.20;;
7334;SDS011;3708;42.632;23.378;2022-10-16T01:57:15;6.60;;;4.90;;
7334;SDS011;3708;42.632;23.378;2022-10-16T01:59:46;10.13;;;4.30;;
7334;SDS011;3708;42.632;23.378;2022-10-16T02:02:15;6.70;;;4.47;;
7334;SDS011;3708;42.632;23.378;2022-10-16T02:04:46;8.27;;;4.57;;
7334;SDS011;3708;42.632;23.378;2022-10-16T02:07:15;9.93;;;5.37;;
7334;SDS011;3708;42.632;23.378;2022-10-16T02:09:43;10.67;;;5.40;;
7334;SDS011;3708;42.632;23.378;2022-10-16T02:12:13;8.97;;;5.60;;
7334;SDS011;3708;42.632;23.378;2022-10-16T02:14:45;8.20;;;4.20;;
7334;SDS011;3708;42.632;23.378;2022-10-16T02:17:13;8.93;;;5.33;;
7334;SDS011;3708;42.632;23.378;2022-10-16T02:19:41;9.80;;;5.30;;
7334;SDS011;3708;42.632;23.378;2022-10-16T02:22:11;7.97;;;5.10;;
7334;SDS011;3708;42.632;23.378;2022-10-16T02:24:43;5.53;;;4.73;;
7334;SDS011;3708;42.632;23.378;2022-10-16T02:27:17;7.27;;;5.13;;
7334;SDS011;3708;42.632;23.378;2022-10-16T02:29:52;12.37;;;4.97;;
7334;SDS011;3708;42.632;23.378;2022-10-16T02:32:25;8.33;;;5.07;;
7334;SDS011;3708;42.632;23.378;2022-10-16T02:34:58;8.80;;;5.20;;
7334;SDS011;3708;42.632;23.378;2022-10-16T02:37:26;9.17;;;5.33;;
7334;SDS011;3708;42.632;23.378;2022-10-16T02:39:54;7.17;;;4.50;;
7334;SDS011;3708;42.632;23.378;2022-10-16T02:42:28;10.20;;;5.50;;
7334;SDS011;3708;42.632;23.378;2022-10-16T02:44:59;10.73;;;5.10;;
7334;SDS011;3708;42.632;23.378;2022-10-16T02:47:26;7.40;;;4.83;;
7334;SDS011;3708;42.632;23.378;2022-10-16T02:49:53;5.97;;;5.20;;
7334;SDS011;3708;42.632;23.378;2022-10-16T02:52:20;5.60;;;5.00;;
7334;SDS011;3708;42.632;23.378;2022-10-16T02:54:47;5.97;;;5.37;;
7334;SDS011;3708;42.632;23.378;2022-10-16T02:57:14;8.60;;;4.97;;
7334;SDS011;3708;42.632;23.378;2022-10-16T02:59:42;7.70;;;5.73;;
7334;SDS011;3708;42.632;23.378;2022-10-16T03:02:09;9.13;;;5.43;;
7334;SDS011;3708;42.632;23.378;2022-10-16T03:04:36;6.20;;;5.37;;
7334;SDS011;3708;42.632;23.378;2022-10-16T03:07:04;6.70;;;5.07;;
7334;SDS011;3708;42.632;23.378;2022-10-16T03:09:31;8.33;;;5.53;;
7334;SDS011;3708;42.632;23.378;2022-10-16T03:11:58;6.80;;;5.13;;
7334;SDS011;3708;42.632;23.378;2022-10-16T03:14:25;12.83;;;6.20;;
7334;SDS011;3708;42.632;23.378;2022-10-16T03:16:53;7.23;;;5.27;;
7334;SDS011;3708;42.632;23.378;2022-10-16T03:19:20;6.87;;;5.33;;
7334;SDS011;3708;42.632;23.378;2022-10-16T03:21:47;6.37;;;5.70;;
7334;SDS011;3708;42.632;23.378;2022-10-16T03:24:14;7.20;;;6.00;;
7334;SDS011;3708;42.632;23.378;2022-10-16T03:26:41;6.73;;;5.43;;
7334;SDS011;3708;42.632;23.378;2022-10-16T03:29:08;6.80;;;5.80;;
7334;SDS011;3708;42.632;23.378;2022-10-16T03:31:35;8.37;;;6.23;;
7334;SDS011;3708;42.632;23.378;2022-10-16T03:34:03;7.73;;;6.47;;
7334;SDS011;3708;42.632;23.378;2022-10-16T03:36:30;9.57;;;7.07;;
7334;SDS011;3708;42.632;23.378;2022-10-16T03:38:57;10.23;;;6.63;;
7334;SDS011;3708;42.632;23.378;2022-10-16T03:41:24;8.13;;;6.30;;
7334;SDS011;3708;42.632;23.378;2022-10-16T03:43:50;10.13;;;6.23;;
7334;SDS011;3708;42.632;23.378;2022-10-16T03:46:17;7.57;;;6.07;;
7334;SDS011;3708;42.632;23.378;2022-10-16T03:48:44;7.63;;;5.73;;
7334;SDS011;3708;42.632;23.378;2022-10-16T03:51:13;8.47;;;6.23;;
7334;SDS011;3708;42.632;23.378;2022-10-16T03:53:40;8.17;;;6.10;;
7334;SDS011;3708;42.632;23.378;2022-10-16T03:56:07;8.60;;;5.90;;
7334;SDS011;3708;42.632;23.378;2022-10-16T03:58:34;8.23;;;6.80;;
7334;SDS011;3708;42.632;23.378;2022-10-16T04:01:00;9.17;;;6.60;;
7334;SDS011;3708;42.632;23.378;2022-10-16T04:03:27;10.07;;;6.80;;
7334;SDS011;3708;42.632;23.378;2022-10-16T04:05:54;10.57;;;6.70;;
7334;SDS011;3708;42.632;23.378;2022-10-16T04:08:23;10.67;;;7.30;;
7334;SDS011;3708;42.632;23.378;2022-10-16T04:10:50;11.23;;;7.67;;
7334;SDS011;3708;42.632;23.378;2022-10-16T04:13:17;10.27;;;7.97;;
7334;SDS011;3708;42.632;23.378;2022-10-16T04:15:44;12.90;;;7.90;;
7334;SDS011;3708;42.632;23.378;2022-10-16T04:18:11;9.03;;;7.13;;
7334;SDS011;3708;42.632;23.378;2022-10-16T04:20:38;13.03;;;7.67;;
7334;SDS011;3708;42.632;23.378;2022-10-16T04:23:05;8.97;;;7.87;;
7334;SDS011;3708;42.632;23.378;2022-10-16T04:25:33;11.13;;;7.83;;
7334;SDS011;3708;42.632;23.378;2022-10-16T04:28:00;11.20;;;7.00;;
7334;SDS011;3708;42.632;23.378;2022-10-16T04:30:27;9.83;;;7.63;;
7334;SDS011;3708;42.632;23.378;2022-10-16T04:32:54;10.00;;;6.77;;
7334;SDS011;3708;42.632;23.378;2022-10-16T04:35:21;8.33;;;6.60;;
7334;SDS011;3708;42.632;23.378;2022-10-16T04:37:48;7.73;;;6.23;;
7334;SDS011;3708;42.632;23.378;2022-10-16T04:40:15;9.17;;;6.07;;
7334;SDS011;3708;42.632;23.378;2022-10-16T04:42:44;9.37;;;6.00;;
7334;SDS011;3708;42.632;23.378;2022-10-16T04:45:11;11.50;;;6.87;;
7334;SDS011;3708;42.632;23.378;2022-10-16T04:47:38;8.23;;;6.10;;
7334;SDS011;3708;42.632;23.378;2022-10-16T04:50:05;12.33;;;6.57;;
7334;SDS011;3708;42.632;23.378;2022-10-16T04:52:32;9.63;;;6.50;;
7334;SDS011;3708;42.632;23.378;2022-10-16T04:55:00;9.10;;;6.83;;
7334;SDS011;3708;42.632;23.378;2022-10-16T04:57:28;6.77;;;5.73;;
7334;SDS011;3708;42.632;23.378;2022-10-16T04:59:56;8.07;;;5.80;;
7334;SDS011;3708;42.632;23.378;2022-10-16T05:02:23;8.37;;;6.13;;
7334;SDS011;3708;42.632;23.378;2022-10-16T05:04:50;8.03;;;6.13;;
7334;SDS011;3708;42.632;23.378;2022-10-16T05:07:18;9.53;;;6.63;;
7334;SDS011;3708;42.632;23.378;2022-10-16T05:09:45;7.33;;;6.20;;
7334;SDS011;3708;42.632;23.378;2022-10-16T05:12:11;9.87;;;6.77;;
7334;SDS011;3708;42.632;23.378;2022-10-16T05:14:38;7.93;;;5.73;;
7334;SDS011;3708;42.632;23.378;2022-10-16T05:17:07;6.17;;;5.43;;
7334;SDS011;3708;42.632;23.378;2022-10-16T05:19:33;7.03;;;5.87;;
7334;SDS011;3708;42.632;23.378;2022-10-16T05:22:00;7.37;;;5.93;;
7334;SDS011;3708;42.632;23.378;2022-10-16T05:24:27;7.83;;;6.13;;
7334;SDS011;3708;42.632;23.378;2022-10-16T05:26:54;7.97;;;6.30;;
7334;SDS011;3708;42.632;23.378;2022-10-16T05:29:21;7.70;;;5.80;;
7334;SDS011;3708;42.632;23.378;2022-10-16T05:31:49;8.67;;;6.10;;
7334;SDS011;3708;42.632;23.378;2022-10-16T05:34:18;10.93;;;6.77;;
7334;SDS011;3708;42.632;23.378;2022-10-16T05:36:45;10.83;;;6.43;;
7334;SDS011;3708;42.632;23.378;2022-10-16T05:39:13;10.37;;;6.57;;
7334;SDS011;3708;42.632;23.378;2022-10-16T05:41:40;9.83;;;6.27;;
7334;SDS011;3708;42.632;23.378;2022-10-16T05:44:08;10.30;;;6.43;;
7334;SDS011;3708;42.632;23.378;2022-10-16T05:46:35;8.67;;;6.27;;
7334;SDS011;3708;42.632;23.378;2022-10-16T05:49:02;6.20;;;5.53;;
7334;SDS011;3708;42.632;23.378;2022-10-16T05:51:31;8.93;;;6.13;;
7334;SDS011;3708;42.632;23.378;2022-10-16T05:53:58;6.70;;;5.27;;
7334;SDS011;3708;42.632;23.378;2022-10-16T05:56:24;8.57;;;6.17;;
7334;SDS011;3708;42.632;23.378;2022-10-16T05:58:51;8.87;;;5.73;;
7334;SDS011;3708;42.632;23.378;2022-10-16T06:01:19;7.30;;;5.47;;
7334;SDS011;3708;42.632;23.378;2022-10-16T06:03:49;7.60;;;5.77;;
7334;SDS011;3708;42.632;23.378;2022-10-16T06:06:17;11.77;;;6.33;;
7334;SDS011;3708;42.632;23.378;2022-10-16T06:08:47;6.43;;;5.80;;
7334;SDS011;3708;42.632;23.378;2022-10-16T06:11:15;12.17;;;5.77;;
7334;SDS011;3708;42.632;23.378;2022-10-16T06:13:43;7.67;;;6.20;;
7334;SDS011;3708;42.632;23.378;2022-10-16T06:16:11;6.80;;;5.10;;
7334;SDS011;3708;42.632;23.378;2022-10-16T06:18:39;8.40;;;5.60;;
7334;SDS011;3708;42.632;23.378;2022-10-16T06:21:09;9.80;;;5.50;;
7334;SDS011;3708;42.632;23.378;2022-10-16T06:23:37;9.20;;;6.00;;
7334;SDS011;3708;42.632;23.378;2022-10-16T06:26:06;11.87;;;6.00;;
7334;SDS011;3708;42.632;23.378;2022-10-16T06:28:33;6.87;;;5.60;;
7334;SDS011;3708;42.632;23.378;2022-10-16T06:31:00;6.70;;;5.23;;
7334;SDS011;3708;42.632;23.378;2022-10-16T06:33:28;6.83;;;5.23;;
7334;SDS011;3708;42.632;23.378;2022-10-16T06:35:59;6.93;;;5.33;;
7334;SDS011;3708;42.632;23.378;2022-10-16T06:38:27;7.97;;;5.40;;
7334;SDS011;3708;42.632;23.378;2022-10-16T06:40:54;7.67;;;6.10;;
7334;SDS011;3708;42.632;23.378;2022-10-16T06:43:22;6.17;;;5.20;;
7334;SDS011;3708;42.632;23.378;2022-10-16T06:45:52;6.57;;;4.90;;
7334;SDS011;3708;42.632;23.378;2022-10-16T06:48:19;8.10;;;5.33;;
7334;SDS011;3708;42.632;23.378;2022-10-16T06:50:54;7.00;;;4.93;;
7334;SDS011;3708;42.632;23.378;2022-10-16T06:53:23;10.10;;;5.10;;
7334;SDS011;3708;42.632;23.378;2022-10-16T06:55:50;6.83;;;5.03;;
7334;SDS011;3708;42.632;23.378;2022-10-16T06:58:17;9.00;;;5.50;;
7334;SDS011;3708;42.632;23.378;2022-10-16T07:00:46;8.77;;;5.53;;
7334;SDS011;3708;42.632;23.378;2022-10-16T07:03:13;11.93;;;6.40;;
7334;SDS011;3708;42.632;23.378;2022-10-16T07:05:41;10.77;;;6.13;;
7334;SDS011;3708;42.632;23.378;2022-10-16T07:08:08;7.87;;;6.00;;
7334;SDS011;3708;42.632;23.378;2022-10-16T07:10:36;8.00;;;5.97;;
7334;SDS011;3708;42.632;23.378;2022-10-16T07:13:03;13.63;;;7.20;;
7334;SDS011;3708;42.632;23.378;2022-10-16T07:15:32;10.43;;;6.90;;
7334;SDS011;3708;42.632;23.378;2022-10-16T07:18:01;12.37;;;8.33;;
7334;SDS011;3708;42.632;23.378;2022-10-16T07:20:29;15.77;;;7.90;;
7334;SDS011;3708;42.632;23.378;2022-10-16T07:22:56;9.53;;;7.00;;
7334;SDS011;3708;42.632;23.378;2022-10-16T07:25:27;11.23;;;7.77;;
7334;SDS011;3708;42.632;23.378;2022-10-16T07:27:55;14.27;;;8.03;;
7334;SDS011;3708;42.632;23.378;2022-10-16T07:30:22;11.67;;;7.40;;
7334;SDS011;3708;42.632;23.378;2022-10-16T07:32:52;8.63;;;7.33;;
7334;SDS011;3708;42.632;23.378;2022-10-16T07:35:24;16.23;;;8.20;;
7334;SDS011;3708;42.632;23.378;2022-10-16T07:37:51;10.00;;;7.80;;
7334;SDS011;3708;42.632;23.378;2022-10-16T07:40:18;17.23;;;7.23;;
7334;SDS011;3708;42.632;23.378;2022-10-16T07:42:45;9.87;;;7.27;;
7334;SDS011;3708;42.632;23.378;2022-10-16T07:45:12;14.73;;;7.73;;
7334;SDS011;3708;42.632;23.378;2022-10-16T07:47:39;18.93;;;9.20;;
7334;SDS011;3708;42.632;23.378;2022-10-16T07:50:06;13.83;;;7.57;;
7334;SDS011;3708;42.632;23.378;2022-10-16T07:52:34;15.40;;;7.17;;
7334;SDS011;3708;42.632;23.378;2022-10-16T07:55:01;13.77;;;7.53;;
7334;SDS011;3708;42.632;23.378;2022-10-16T07:57:29;11.83;;;7.90;;
7334;SDS011;3708;42.632;23.378;2022-10-16T07:59:56;11.93;;;6.97;;
7334;SDS011;3708;42.632;23.378;2022-10-16T08:02:23;16.40;;;6.57;;
7334;SDS011;3708;42.632;23.378;2022-10-16T08:04:50;12.27;;;6.93;;
7334;SDS011;3708;42.632;23.378;2022-10-16T08:07:19;11.63;;;6.87;;
7334;SDS011;3708;42.632;23.378;2022-10-16T08:09:50;13.87;;;7.37;;
7334;SDS011;3708;42.632;23.378;2022-10-16T08:12:17;14.03;;;6.67;;
7334;SDS011;3708;42.632;23.378;2022-10-16T08:14:44;12.67;;;6.73;;
7334;SDS011;3708;42.632;23.378;2022-10-16T08:17:13;11.77;;;6.30;;
7334;SDS011;3708;42.632;23.378;2022-10-16T08:19:41;9.80;;;6.33;;
7334;SDS011;3708;42.632;23.378;2022-10-16T08:22:10;11.67;;;6.67;;
7334;SDS011;3708;42.632;23.378;2022-10-16T08:24:37;10.23;;;5.73;;
7334;SDS011;3708;42.632;23.378;2022-10-16T08:27:06;9.23;;;6.33;;
7334;SDS011;3708;42.632;23.378;2022-10-16T08:29:34;9.60;;;6.17;;
7334;SDS011;3708;42.632;23.378;2022-10-16T08:32:01;6.90;;;5.13;;
7334;SDS011;3708;42.632;23.378;2022-10-16T08:34:29;5.27;;;4.77;;
7334;SDS011;3708;42.632;23.378;2022-10-16T08:36:56;8.70;;;5.43;;
7334;SDS011;3708;42.632;23.378;2022-10-16T08:39:23;8.07;;;5.40;;
7334;SDS011;3708;42.632;23.378;2022-10-16T08:44:58;9.60;;;5.20;;
7334;SDS011;3708;42.632;23.378;2022-10-16T08:47:38;6.40;;;4.30;;
7334;SDS011;3708;42.632;23.378;2022-10-16T08:50:21;7.43;;;5.07;;
7334;SDS011;3708;42.632;23.378;2022-10-16T08:52:50;7.07;;;4.77;;
7334;SDS011;3708;42.632;23.378;2022-10-16T08:55:22;8.50;;;4.83;;
7334;SDS011;3708;42.632;23.378;2022-10-16T08:57:58;5.30;;;3.60;;
7334;SDS011;3708;42.632;23.378;2022-10-16T09:00:26;4.67;;;3.63;;
7334;SDS011;3708;42.632;23.378;2022-10-16T09:02:57;6.00;;;4.33;;
7334;SDS011;3708;42.632;23.378;2022-10-16T09:05:42;7.27;;;3.67;;
7334;SDS011;3708;42.632;23.378;2022-10-16T09:08:28;4.50;;;3.07;;
7334;SDS011;3708;42.632;23.378;2022-10-16T09:11:06;3.70;;;3.10;;
7334;SDS011;3708;42.632;23.378;2022-10-16T09:13:43;5.50;;;3.50;;
7334;SDS011;3708;42.632;23.378;2022-10-16T09:16:18;6.47;;;3.80;;
7334;SDS011;3708;42.632;23.378;2022-10-16T09:18:51;5.30;;;3.77;;
7334;SDS011;3708;42.632;23.378;2022-10-16T09:21:25;5.13;;;3.60;;
7334;SDS011;3708;42.632;23.378;2022-10-16T09:23:57;5.57;;;3.73;;
7334;SDS011;3708;42.632;23.378;2022-10-16T09:26:26;7.37;;;3.73;;
7334;SDS011;3708;42.632;23.378;2022-10-16T09:28:54;4.47;;;3.87;;
7334;SDS011;3708;42.632;23.378;2022-10-16T09:31:23;9.63;;;3.80;;
7334;SDS011;3708;42.632;23.378;2022-10-16T09:33:51;6.67;;;3.40;;
7334;SDS011;3708;42.632;23.378;2022-10-16T09:36:21;6.20;;;3.70;;
7334;SDS011;3708;42.632;23.378;2022-10-16T09:39:01;4.20;;;3.33;;
7334;SDS011;3708;42.632;23.378;2022-10-16T09:41:30;10.07;;;3.50;;
7334;SDS011;3708;42.632;23.378;2022-10-16T09:44:02;8.73;;;2.93;;
7334;SDS011;3708;42.632;23.378;2022-10-16T09:46:35;5.27;;;3.63;;
7334;SDS011;3708;42.632;23.378;2022-10-16T09:49:16;5.20;;;3.27;;
7334;SDS011;3708;42.632;23.378;2022-10-16T09:51:47;9.17;;;3.80;;
7334;SDS011;3708;42.632;23.378;2022-10-16T09:54:15;7.13;;;3.20;;
7334;SDS011;3708;42.632;23.378;2022-10-16T09:56:43;3.13;;;2.77;;
7334;SDS011;3708;42.632;23.378;2022-10-16T09:59:16;6.03;;;3.77;;
7334;SDS011;3708;42.632;23.378;2022-10-16T10:01:44;3.40;;;2.97;;
7334;SDS011;3708;42.632;23.378;2022-10-16T10:04:13;4.53;;;3.37;;
7334;SDS011;3708;42.632;23.378;2022-10-16T10:06:41;4.23;;;2.93;;
7334;SDS011;3708;42.632;23.378;2022-10-16T10:09:16;6.23;;;3.37;;
7334;SDS011;3708;42.632;23.378;2022-10-16T10:11:49;4.40;;;3.27;;
7334;SDS011;3708;42.632;23.378;2022-10-16T10:14:21;4.27;;;3.33;;
7334;SDS011;3708;42.632;23.378;2022-10-16T10:16:51;6.23;;;3.43;;
7334;SDS011;3708;42.632;23.378;2022-10-16T10:19:19;5.57;;;3.20;;
7334;SDS011;3708;42.632;23.378;2022-10-16T10:21:47;4.93;;;3.37;;
7334;SDS011;3708;42.632;23.378;2022-10-16T10:24:16;5.03;;;3.90;;
7334;SDS011;3708;42.632;23.378;2022-10-16T10:26:54;6.40;;;3.70;;
7334;SDS011;3708;42.632;23.378;2022-10-16T10:29:34;6.73;;;3.70;;
7334;SDS011;3708;42.632;23.378;2022-10-16T10:32:16;5.93;;;3.60;;
7334;SDS011;3708;42.632;23.378;2022-10-16T10:34:54;4.53;;;3.53;;
7334;SDS011;3708;42.632;23.378;2022-10-16T10:37:38;5.23;;;3.43;;
7334;SDS011;3708;42.632;23.378;2022-10-16T10:40:22;4.63;;;3.37;;
7334;SDS011;3708;42.632;23.378;2022-10-16T10:42:57;8.53;;;3.97;;
7334;SDS011;3708;42.632;23.378;2022-10-16T10:45:37;4.60;;;3.60;;
7334;SDS011;3708;42.632;23.378;2022-10-16T10:48:17;6.17;;;3.53;;
7334;SDS011;3708;42.632;23.378;2022-10-16T10:50:55;4.23;;;3.20;;
7334;SDS011;3708;42.632;23.378;2022-10-16T10:53:33;4.57;;;3.70;;
7334;SDS011;3708;42.632;23.378;2022-10-16T10:56:10;2.87;;;2.30;;
7334;SDS011;3708;42.632;23.378;2022-10-16T10:59:01;3.83;;;2.90;;
7334;SDS011;3708;42.632;23.378;2022-10-16T11:01:39;3.73;;;3.07;;
7334;SDS011;3708;42.632;23.378;2022-10-16T11:04:19;4.33;;;3.00;;
7334;SDS011;3708;42.632;23.378;2022-10-16T11:07:01;4.37;;;3.13;;
7334;SDS011;3708;42.632;23.378;2022-10-16T11:09:31;6.13;;;3.13;;
7334;SDS011;3708;42.632;23.378;2022-10-16T11:12:05;5.22;;;2.53;;
7334;SDS011;3708;42.632;23.378;2022-10-16T11:14:39;2.78;;;2.40;;
7334;SDS011;3708;42.632;23.378;2022-10-16T11:17:12;5.68;;;2.35;;
7334;SDS011;3708;42.632;23.378;2022-10-16T11:19:44;6.22;;;2.33;;
7334;SDS011;3708;42.632;23.378;2022-10-16T11:22:16;2.63;;;2.20;;
7334;SDS011;3708;42.632;23.378;2022-10-16T11:24:48;7.38;;;2.63;;
7334;SDS011;3708;42.632;23.378;2022-10-16T11:27:20;2.83;;;2.20;;
7334;SDS011;3708;42.632;23.378;2022-10-16T11:29:53;3.30;;;2.45;;
7334;SDS011;3708;42.632;23.378;2022-10-16T11:32:27;7.60;;;2.40;;
7334;SDS011;3708;42.632;23.378;2022-10-16T11:34:59;4.30;;;1.90;;
7334;SDS011;3708;42.632;23.378;2022-10-16T11:37:36;5.97;;;2.05;;
7334;SDS011;3708;42.632;23.378;2022-10-16T11:40:19;2.50;;;2.10;;
7334;SDS011;3708;42.632;23.378;2022-10-16T11:42:52;3.08;;;1.77;;
7334;SDS011;3708;42.632;23.378;2022-10-16T11:45:26;4.55;;;2.17;;
7334;SDS011;3708;42.632;23.378;2022-10-16T11:48:02;3.58;;;2.67;;
7334;SDS011;3708;42.632;23.378;2022-10-16T11:50:37;7.38;;;2.35;;
7334;SDS011;3708;42.632;23.378;2022-10-16T11:53:11;2.58;;;2.17;;
7334;SDS011;3708;42.632;23.378;2022-10-16T11:55:43;3.00;;;2.10;;
7334;SDS011;3708;42.632;23.378;2022-10-16T11:58:14;3.85;;;1.88;;
7334;SDS011;3708;42.632;23.378;2022-10-16T12:00:51;2.80;;;1.90;;
7334;SDS011;3708;42.632;23.378;2022-10-16T12:03:26;3.42;;;2.58;;
7334;SDS011;3708;42.632;23.378;2022-10-16T12:06:04;3.88;;;2.50;;
7334;SDS011;3708;42.632;23.378;2022-10-16T12:08:39;2.47;;;2.15;;
7334;SDS011;3708;42.632;23.378;2022-10-16T12:11:07;2.50;;;2.00;;
7334;SDS011;3708;42.632;23.378;2022-10-16T12:13:36;2.55;;;2.17;;
7334;SDS011;3708;42.632;23.378;2022-10-16T12:18:49;3.10;;;2.25;;
7334;SDS011;3708;42.632;23.378;2022-10-16T12:21:36;4.25;;;2.78;;
7334;SDS011;3708;42.632;23.378;2022-10-16T12:24:03;4.80;;;2.08;;
7334;SDS011;3708;42.632;23.378;2022-10-16T12:26:31;4.95;;;2.25;;
7334;SDS011;3708;42.632;23.378;2022-10-16T12:29:13;4.03;;;2.70;;
7334;SDS011;3708;42.632;23.378;2022-10-16T12:31:48;3.13;;;2.42;;
7334;SDS011;3708;42.632;23.378;2022-10-16T12:34:20;4.95;;;2.25;;
7334;SDS011;3708;42.632;23.378;2022-10-16T12:36:49;2.63;;;2.03;;
7334;SDS011;3708;42.632;23.378;2022-10-16T12:39:20;2.22;;;2.00;;
7334;SDS011;3708;42.632;23.378;2022-10-16T12:41:59;6.63;;;2.65;;
7334;SDS011;3708;42.632;23.378;2022-10-16T12:44:31;2.83;;;2.22;;
7334;SDS011;3708;42.632;23.378;2022-10-16T12:46:59;9.50;;;2.67;;
7334;SDS011;3708;42.632;23.378;2022-10-16T12:49:32;3.08;;;2.25;;
7334;SDS011;3708;42.632;23.378;2022-10-16T12:52:03;4.22;;;2.20;;
7334;SDS011;3708;42.632;23.378;2022-10-16T12:54:31;5.53;;;2.42;;
7334;SDS011;3708;42.632;23.378;2022-10-16T12:57:06;2.55;;;1.98;;
7334;SDS011;3708;42.632;23.378;2022-10-16T12:59:51;3.20;;;2.30;;
7334;SDS011;3708;42.632;23.378;2022-10-16T13:02:34;3.67;;;2.47;;
7334;SDS011;3708;42.632;23.378;2022-10-16T13:05:21;3.97;;;3.20;;
7334;SDS011;3708;42.632;23.378;2022-10-16T13:08:01;6.78;;;2.53;;
7334;SDS011;3708;42.632;23.378;2022-10-16T13:10:41;4.35;;;2.10;;
7334;SDS011;3708;42.632;23.378;2022-10-16T13:13:26;3.05;;;2.20;;
7334;SDS011;3708;42.632;23.378;2022-10-16T13:16:13;4.25;;;2.50;;
7334;SDS011;3708;42.632;23.378;2022-10-16T13:18:50;3.63;;;2.33;;
7334;SDS011;3708;42.632;23.378;2022-10-16T13:21:31;5.30;;;3.00;;
7334;SDS011;3708;42.632;23.378;2022-10-16T13:24:07;3.13;;;2.50;;
7334;SDS011;3708;42.632;23.378;2022-10-16T13:26:46;3.50;;;2.00;;
7334;SDS011;3708;42.632;23.378;2022-10-16T13:29:19;5.00;;;2.53;;
7334;SDS011;3708;42.632;23.378;2022-10-16T13:31:47;2.90;;;2.42;;
7334;SDS011;3708;42.632;23.378;2022-10-16T13:34:16;3.47;;;2.75;;
7334;SDS011;3708;42.632;23.378;2022-10-16T13:36:46;5.25;;;2.00;;
7334;SDS011;3708;42.632;23.378;2022-10-16T13:39:19;3.70;;;2.97;;
7334;SDS011;3708;42.632;23.378;2022-10-16T13:41:57;3.60;;;2.67;;
7334;SDS011;3708;42.632;23.378;2022-10-16T13:44:27;2.97;;;2.33;;
7334;SDS011;3708;42.632;23.378;2022-10-16T13:47:00;4.03;;;2.47;;
7334;SDS011;3708;42.632;23.378;2022-10-16T13:49:27;3.50;;;2.95;;
7334;SDS011;3708;42.632;23.378;2022-10-16T13:51:56;5.15;;;2.60;;
7334;SDS011;3708;42.632;23.378;2022-10-16T13:54:24;5.75;;;2.60;;
7334;SDS011;3708;42.632;23.378;2022-10-16T13:56:53;4.47;;;2.42;;
7334;SDS011;3708;42.632;23.378;2022-10-16T13:59:24;3.28;;;2.50;;
7334;SDS011;3708;42.632;23.378;2022-10-16T14:01:53;4.05;;;2.38;;
7334;SDS011;3708;42.632;23.378;2022-10-16T14:04:23;7.40;;;2.85;;
7334;SDS011;3708;42.632;23.378;2022-10-16T14:06:51;4.35;;;2.72;;
7334;SDS011;3708;42.632;23.378;2022-10-16T14:09:23;3.95;;;2.33;;
7334;SDS011;3708;42.632;23.378;2022-10-16T14:11:53;6.07;;;2.50;;
7334;SDS011;3708;42.632;23.378;2022-10-16T14:14:22;5.85;;;2.88;;
7334;SDS011;3708;42.632;23.378;2022-10-16T14:16:50;6.38;;;2.58;;
7334;SDS011;3708;42.632;23.378;2022-10-16T14:19:19;4.55;;;2.10;;
7334;SDS011;3708;42.632;23.378;2022-10-16T14:21:49;5.10;;;2.80;;
7334;SDS011;3708;42.632;23.378;2022-10-16T14:24:24;7.88;;;2.58;;
7334;SDS011;3708;42.632;23.378;2022-10-16T14:26:53;5.10;;;2.50;;
7334;SDS011;3708;42.632;23.378;2022-10-16T14:29:21;3.38;;;2.63;;
7334;SDS011;3708;42.632;23.378;2022-10-16T14:31:59;4.28;;;2.53;;
7334;SDS011;3708;42.632;23.378;2022-10-16T14:34:29;4.30;;;2.53;;
7334;SDS011;3708;42.632;23.378;2022-10-16T14:36:59;8.45;;;2.85;;
7334;SDS011;3708;42.632;23.378;2022-10-16T14:39:33;3.30;;;2.35;;
7334;SDS011;3708;42.632;23.378;2022-10-16T14:42:00;8.43;;;3.22;;
7334;SDS011;3708;42.632;23.378;2022-10-16T14:44:29;6.93;;;3.10;;
7334;SDS011;3708;42.632;23.378;2022-10-16T14:47:06;3.58;;;2.28;;
7334;SDS011;3708;42.632;23.378;2022-10-16T14:49:35;4.20;;;2.08;;
7334;SDS011;3708;42.632;23.378;2022-10-16T14:52:04;3.70;;;2.80;;
7334;SDS011;3708;42.632;23.378;2022-10-16T14:54:36;3.67;;;2.45;;
7334;SDS011;3708;42.632;23.378;2022-10-16T14:57:03;5.80;;;3.50;;
7334;SDS011;3708;42.632;23.378;2022-10-16T14:59:32;5.43;;;3.15;;
7334;SDS011;3708;42.632;23.378;2022-10-16T15:02:02;5.47;;;2.97;;
7334;SDS011;3708;42.632;23.378;2022-10-16T15:04:43;6.27;;;3.33;;
7334;SDS011;3708;42.632;23.378;2022-10-16T15:07:09;4.60;;;3.10;;
7334;SDS011;3708;42.632;23.378;2022-10-16T15:09:38;6.20;;;3.70;;
7334;SDS011;3708;42.632;23.378;2022-10-16T15:12:05;4.83;;;3.20;;
7334;SDS011;3708;42.632;23.378;2022-10-16T15:14:32;8.73;;;6.67;;
7334;SDS011;3708;42.632;23.378;2022-10-16T15:16:59;4.87;;;3.30;;
7334;SDS011;3708;42.632;23.378;2022-10-16T15:19:26;6.47;;;2.73;;
7334;SDS011;3708;42.632;23.378;2022-10-16T15:21:53;8.53;;;3.33;;
7334;SDS011;3708;42.632;23.378;2022-10-16T15:24:19;5.70;;;3.03;;